Amory, Mississippi
Current Conditions -  °F | °C
As of 10:15 AM on Thursday 18 Dec 2014 (Local Time) from KM40 Reporting Station
Clear Clear  
Wind Chill: 45°   Ceiling: Unl
Heat Index: 45°   Visibility: 7mi
Dew Point: 30°   Wind: 0mph
Humidity: 57%   Direction: NA
Pressure: 30.26"   Gusts: NA
Location:  33.99°N, 88.49°W
Report Text: KM40 181615Z AUTO 00000KT 7SM CLR 07/M01 A3026 RMK AO2
Loading
Personal Weather Stations






























Interactive Weather Map New forecast layout! Learn more

10-Day Weather Forecast

Advertisements
Track Severe Weather on mobile